トロンハイム の空港の天気 - METARとTAF

Trondheim / Vaernes ( ENVA / TRD ) - ノルウェー ヌール・トロンデラーグ県、Stjordal
飛行場実況気象(Metar)
観測時間11/22 13:50 CET (11/22 12:50 UTC)
風向・風速南東 8m/s 瞬間風速13m/s
視程10km以上
天気現象
少しの雲 雲底高度 610m
気温0℃
湿度51%
気圧999hPa
METARENVA 221250Z 13015G26KT 080V190 9999 FEW020 M00/M09 Q0999 TEMPO 15028G40KT RMK WIND 670FT 16031G47KT
過去の天気等 Google飛行場航空写真 Wunderground天気予報

過去48時間のMETAR

飛行場予報(TAF)
発表時間: -
22日13時 CET ~ 23日13時 CET に一時的に
風向・風速東南東 9m/s 瞬間風速 15m/s
22日16時 CET から 確率 40% で
風向・風速南南東 14m/s 瞬間風速 21m/s
22日22時 CET から 確率 30% で
視程3,000m
天気現象弱い雪
全天を覆う雲 鉛直視程 430m
TAF ENVA 2212/2312 10015KT CAVOK
TEMPO 2212/2312 12018G30KT
PROB40 2215/2222 15028G40KT
PROB30 2221/2304 3000 -SN VV014